sensor_id;sensor_type;location;lat;lon;timestamp;temperature;humidity
51783;DHT22;37845;53.196;5.638;2022-09-17T00:00:55;12.30;99.90
51783;DHT22;37845;53.196;5.638;2022-09-17T00:03:23;12.80;99.90
51783;DHT22;37845;53.196;5.638;2022-09-17T00:05:55;12.30;99.90
51783;DHT22;37845;53.196;5.638;2022-09-17T00:08:22;12.40;99.90
51783;DHT22;37845;53.196;5.638;2022-09-17T00:10:48;12.40;99.90
51783;DHT22;37845;53.196;5.638;2022-09-17T00:13:13;12.40;99.90
51783;DHT22;37845;53.196;5.638;2022-09-17T00:15:40;12.40;99.90
51783;DHT22;37845;53.196;5.638;2022-09-17T00:18:06;12.30;99.90
51783;DHT22;37845;53.196;5.638;2022-09-17T00:20:36;12.30;99.90
51783;DHT22;37845;53.196;5.638;2022-09-17T00:23:01;12.30;99.90
51783;DHT22;37845;53.196;5.638;2022-09-17T00:25:27;12.30;99.90
51783;DHT22;37845;53.196;5.638;2022-09-17T00:27:53;12.30;99.90
51783;DHT22;37845;53.196;5.638;2022-09-17T00:30:18;12.30;99.90
51783;DHT22;37845;53.196;5.638;2022-09-17T00:32:44;12.30;99.90
51783;DHT22;37845;53.196;5.638;2022-09-17T00:35:09;12.30;99.90
51783;DHT22;37845;53.196;5.638;2022-09-17T00:37:35;12.20;99.90
51783;DHT22;37845;53.196;5.638;2022-09-17T00:40:01;12.10;99.90
51783;DHT22;37845;53.196;5.638;2022-09-17T00:42:26;12.00;99.90
51783;DHT22;37845;53.196;5.638;2022-09-17T00:44:53;11.90;99.90
51783;DHT22;37845;53.196;5.638;2022-09-17T00:49:48;11.80;99.90
51783;DHT22;37845;53.196;5.638;2022-09-17T00:52:26;11.80;99.90
51783;DHT22;37845;53.196;5.638;2022-09-17T00:55:00;11.80;99.90
51783;DHT22;37845;53.196;5.638;2022-09-17T00:57:27;11.80;99.90
51783;DHT22;37845;53.196;5.638;2022-09-17T00:59:53;11.70;99.90
51783;DHT22;37845;53.196;5.638;2022-09-17T01:02:18;11.70;99.90
51783;DHT22;37845;53.196;5.638;2022-09-17T01:04:44;11.70;99.90
51783;DHT22;37845;53.196;5.638;2022-09-17T01:07:23;11.80;99.90
51783;DHT22;37845;53.196;5.638;2022-09-17T01:09:53;11.70;99.90
51783;DHT22;37845;53.196;5.638;2022-09-17T01:18:15;12.00;99.90
51783;DHT22;37845;53.196;5.638;2022-09-17T01:20:59;12.10;99.90
51783;DHT22;37845;53.196;5.638;2022-09-17T01:41:46;11.80;99.90
51783;DHT22;37845;53.196;5.638;2022-09-17T01:44:27;11.70;99.90
51783;DHT22;37845;53.196;5.638;2022-09-17T01:47:00;11.70;99.90
51783;DHT22;37845;53.196;5.638;2022-09-17T01:49:28;11.70;99.90
51783;DHT22;37845;53.196;5.638;2022-09-17T01:51:54;11.70;99.90
51783;DHT22;37845;53.196;5.638;2022-09-17T01:54:25;11.70;99.90
51783;DHT22;37845;53.196;5.638;2022-09-17T01:56:57;11.60;99.90
51783;DHT22;37845;53.196;5.638;2022-09-17T01:59:28;11.60;99.90
51783;DHT22;37845;53.196;5.638;2022-09-17T02:02:00;11.60;99.90
51783;DHT22;37845;53.196;5.638;2022-09-17T02:04:35;11.60;99.90
51783;DHT22;37845;53.196;5.638;2022-09-17T02:07:04;11.60;99.90
51783;DHT22;37845;53.196;5.638;2022-09-17T02:09:35;11.70;99.90
51783;DHT22;37845;53.196;5.638;2022-09-17T02:12:04;11.80;99.90
51783;DHT22;37845;53.196;5.638;2022-09-17T02:14:43;11.80;99.90
51783;DHT22;37845;53.196;5.638;2022-09-17T02:17:12;11.90;99.90
51783;DHT22;37845;53.196;5.638;2022-09-17T02:19:41;11.90;99.90
51783;DHT22;37845;53.196;5.638;2022-09-17T02:22:15;12.00;99.90
51783;DHT22;37845;53.196;5.638;2022-09-17T02:29:59;12.00;99.90
51783;DHT22;37845;53.196;5.638;2022-09-17T02:32:25;12.00;99.90
51783;DHT22;37845;53.196;5.638;2022-09-17T02:34:50;12.00;99.90
51783;DHT22;37845;53.196;5.638;2022-09-17T02:37:16;12.10;99.90
51783;DHT22;37845;53.196;5.638;2022-09-17T02:39:41;12.60;99.90
51783;DHT22;37845;53.196;5.638;2022-09-17T02:47:25;12.00;99.90
51783;DHT22;37845;53.196;5.638;2022-09-17T02:58:21;11.70;99.90
51783;DHT22;37845;53.196;5.638;2022-09-17T03:00:50;11.60;99.90
51783;DHT22;37845;53.196;5.638;2022-09-17T03:03:50;11.60;99.90
51783;DHT22;37845;53.196;5.638;2022-09-17T03:06:08;11.60;99.90
51783;DHT22;37845;53.196;5.638;2022-09-17T03:08:44;11.60;99.90
51783;DHT22;37845;53.196;5.638;2022-09-17T03:11:09;11.60;99.90
51783;DHT22;37845;53.196;5.638;2022-09-17T03:13:37;11.60;99.90
51783;DHT22;37845;53.196;5.638;2022-09-17T03:16:03;11.60;99.90
51783;DHT22;37845;53.196;5.638;2022-09-17T03:18:29;11.70;99.90
51783;DHT22;37845;53.196;5.638;2022-09-17T03:20:54;11.70;99.90
51783;DHT22;37845;53.196;5.638;2022-09-17T03:23:20;11.80;99.90
51783;DHT22;37845;53.196;5.638;2022-09-17T03:25:49;11.80;99.90
51783;DHT22;37845;53.196;5.638;2022-09-17T03:28:15;12.40;99.90
51783;DHT22;37845;53.196;5.638;2022-09-17T03:30:44;11.90;99.90
51783;DHT22;37845;53.196;5.638;2022-09-17T03:33:10;11.90;99.90
51783;DHT22;37845;53.196;5.638;2022-09-17T03:35:35;11.90;99.90
51783;DHT22;37845;53.196;5.638;2022-09-17T03:38:02;11.90;99.90
51783;DHT22;37845;53.196;5.638;2022-09-17T03:40:27;12.00;99.90
51783;DHT22;37845;53.196;5.638;2022-09-17T03:42:53;12.10;99.90
51783;DHT22;37845;53.196;5.638;2022-09-17T03:45:19;12.00;99.90
51783;DHT22;37845;53.196;5.638;2022-09-17T03:47:44;12.00;99.90
51783;DHT22;37845;53.196;5.638;2022-09-17T03:50:10;12.00;99.90
51783;DHT22;37845;53.196;5.638;2022-09-17T03:52:35;12.00;99.90
51783;DHT22;37845;53.196;5.638;2022-09-17T03:55:01;12.00;99.90
51783;DHT22;37845;53.196;5.638;2022-09-17T03:57:27;12.00;99.90
51783;DHT22;37845;53.196;5.638;2022-09-17T03:59:52;12.00;99.90
51783;DHT22;37845;53.196;5.638;2022-09-17T04:02:18;12.00;99.90
51783;DHT22;37845;53.196;5.638;2022-09-17T04:04:43;11.80;99.90
51783;DHT22;37845;53.196;5.638;2022-09-17T04:07:09;11.60;99.90
51783;DHT22;37845;53.196;5.638;2022-09-17T04:09:35;11.50;99.90
51783;DHT22;37845;53.196;5.638;2022-09-17T04:12:00;11.40;99.90
51783;DHT22;37845;53.196;5.638;2022-09-17T04:14:26;11.30;99.90
51783;DHT22;37845;53.196;5.638;2022-09-17T04:16:52;11.30;99.90
51783;DHT22;37845;53.196;5.638;2022-09-17T04:19:17;11.20;99.90
51783;DHT22;37845;53.196;5.638;2022-09-17T04:21:43;11.30;99.90
51783;DHT22;37845;53.196;5.638;2022-09-17T04:24:08;11.20;99.90
51783;DHT22;37845;53.196;5.638;2022-09-17T04:26:34;11.20;99.90
51783;DHT22;37845;53.196;5.638;2022-09-17T04:29:00;11.20;99.90
51783;DHT22;37845;53.196;5.638;2022-09-17T04:31:25;11.60;99.90
51783;DHT22;37845;53.196;5.638;2022-09-17T04:33:52;11.30;99.90
51783;DHT22;37845;53.196;5.638;2022-09-17T04:36:17;11.30;99.90
51783;DHT22;37845;53.196;5.638;2022-09-17T04:38:43;11.40;99.90
51783;DHT22;37845;53.196;5.638;2022-09-17T04:41:08;11.40;99.90
51783;DHT22;37845;53.196;5.638;2022-09-17T04:43:34;11.50;99.90
51783;DHT22;37845;53.196;5.638;2022-09-17T04:46:00;11.50;99.90
51783;DHT22;37845;53.196;5.638;2022-09-17T04:48:25;11.50;99.90
51783;DHT22;37845;53.196;5.638;2022-09-17T04:50:51;11.60;99.90
51783;DHT22;37845;53.196;5.638;2022-09-17T04:53:16;11.60;99.90
51783;DHT22;37845;53.196;5.638;2022-09-17T04:55:43;11.60;99.90
51783;DHT22;37845;53.196;5.638;2022-09-17T04:58:08;11.60;99.90
51783;DHT22;37845;53.196;5.638;2022-09-17T05:00:34;11.70;99.90
51783;DHT22;37845;53.196;5.638;2022-09-17T05:03:00;11.70;99.90
51783;DHT22;37845;53.196;5.638;2022-09-17T05:05:26;11.60;99.90
51783;DHT22;37845;53.196;5.638;2022-09-17T05:07:52;11.60;99.90
51783;DHT22;37845;53.196;5.638;2022-09-17T05:10:18;11.60;99.90
51783;DHT22;37845;53.196;5.638;2022-09-17T05:12:48;11.50;99.90
51783;DHT22;37845;53.196;5.638;2022-09-17T05:15:14;11.40;99.90
51783;DHT22;37845;53.196;5.638;2022-09-17T05:17:40;11.40;99.90
51783;DHT22;37845;53.196;5.638;2022-09-17T05:20:06;11.40;99.90
51783;DHT22;37845;53.196;5.638;2022-09-17T05:22:32;11.40;99.90
51783;DHT22;37845;53.196;5.638;2022-09-17T05:24:57;11.40;99.90
51783;DHT22;37845;53.196;5.638;2022-09-17T05:27:23;11.40;99.90
51783;DHT22;37845;53.196;5.638;2022-09-17T05:29:48;11.40;99.90
51783;DHT22;37845;53.196;5.638;2022-09-17T05:32:14;11.40;99.90
51783;DHT22;37845;53.196;5.638;2022-09-17T05:34:40;11.50;99.90
51783;DHT22;37845;53.196;5.638;2022-09-17T05:37:08;11.40;99.90
51783;DHT22;37845;53.196;5.638;2022-09-17T05:39:33;11.30;99.90
51783;DHT22;37845;53.196;5.638;2022-09-17T05:41:59;11.20;99.90
51783;DHT22;37845;53.196;5.638;2022-09-17T05:44:24;11.20;99.90
51783;DHT22;37845;53.196;5.638;2022-09-17T05:46:51;11.10;99.90
51783;DHT22;37845;53.196;5.638;2022-09-17T05:49:17;11.10;99.90
51783;DHT22;37845;53.196;5.638;2022-09-17T05:51:42;11.10;99.90
51783;DHT22;37845;53.196;5.638;2022-09-17T05:54:08;11.10;99.90
51783;DHT22;37845;53.196;5.638;2022-09-17T05:56:34;11.10;99.90
51783;DHT22;37845;53.196;5.638;2022-09-17T05:59:00;11.20;99.90
51783;DHT22;37845;53.196;5.638;2022-09-17T06:01:25;11.40;99.90
51783;DHT22;37845;53.196;5.638;2022-09-17T06:03:51;11.50;99.90
51783;DHT22;37845;53.196;5.638;2022-09-17T06:06:18;11.60;99.90
51783;DHT22;37845;53.196;5.638;2022-09-17T06:08:43;11.60;99.90
51783;DHT22;37845;53.196;5.638;2022-09-17T06:11:09;11.60;99.90
51783;DHT22;37845;53.196;5.638;2022-09-17T06:13:35;11.60;99.90
51783;DHT22;37845;53.196;5.638;2022-09-17T06:16:01;11.50;99.90
51783;DHT22;37845;53.196;5.638;2022-09-17T06:18:27;11.40;99.90
51783;DHT22;37845;53.196;5.638;2022-09-17T06:23:20;11.50;99.90
51783;DHT22;37845;53.196;5.638;2022-09-17T06:25:58;11.50;99.90
51783;DHT22;37845;53.196;5.638;2022-09-17T06:28:24;11.50;99.90
51783;DHT22;37845;53.196;5.638;2022-09-17T06:30:50;11.60;99.90
51783;DHT22;37845;53.196;5.638;2022-09-17T06:33:22;11.70;99.90
51783;DHT22;37845;53.196;5.638;2022-09-17T06:35:48;11.50;99.90
51783;DHT22;37845;53.196;5.638;2022-09-17T06:38:13;11.40;99.90
51783;DHT22;37845;53.196;5.638;2022-09-17T06:40:39;11.20;99.90
51783;DHT22;37845;53.196;5.638;2022-09-17T06:43:05;11.10;99.90
51783;DHT22;37845;53.196;5.638;2022-09-17T06:45:31;11.10;99.90
51783;DHT22;37845;53.196;5.638;2022-09-17T06:47:57;11.10;99.90
51783;DHT22;37845;53.196;5.638;2022-09-17T06:50:23;11.10;99.90
51783;DHT22;37845;53.196;5.638;2022-09-17T06:52:50;11.10;99.90
51783;DHT22;37845;53.196;5.638;2022-09-17T06:55:16;11.00;99.90
51783;DHT22;37845;53.196;5.638;2022-09-17T06:57:42;11.20;99.90
51783;DHT22;37845;53.196;5.638;2022-09-17T07:00:08;11.00;99.90
51783;DHT22;37845;53.196;5.638;2022-09-17T07:02:34;11.10;99.90
51783;DHT22;37845;53.196;5.638;2022-09-17T07:05:00;11.10;99.90
51783;DHT22;37845;53.196;5.638;2022-09-17T07:07:25;11.20;99.90
51783;DHT22;37845;53.196;5.638;2022-09-17T07:09:51;11.20;99.90
51783;DHT22;37845;53.196;5.638;2022-09-17T07:12:18;11.20;99.90
51783;DHT22;37845;53.196;5.638;2022-09-17T07:14:44;11.20;99.90
51783;DHT22;37845;53.196;5.638;2022-09-17T07:17:09;11.20;99.90
51783;DHT22;37845;53.196;5.638;2022-09-17T07:19:35;11.30;99.90
51783;DHT22;37845;53.196;5.638;2022-09-17T07:22:01;11.30;99.90
51783;DHT22;37845;53.196;5.638;2022-09-17T07:24:26;11.40;99.90
51783;DHT22;37845;53.196;5.638;2022-09-17T07:26:52;11.60;99.90
51783;DHT22;37845;53.196;5.638;2022-09-17T07:29:18;11.90;99.90
51783;DHT22;37845;53.196;5.638;2022-09-17T07:31:45;11.90;99.90
51783;DHT22;37845;53.196;5.638;2022-09-17T07:34:10;12.10;99.90
51783;DHT22;37845;53.196;5.638;2022-09-17T07:36:36;12.30;99.90
51783;DHT22;37845;53.196;5.638;2022-09-17T07:39:02;12.10;99.90
51783;DHT22;37845;53.196;5.638;2022-09-17T07:41:27;11.90;99.90
51783;DHT22;37845;53.196;5.638;2022-09-17T07:43:53;11.70;99.90
51783;DHT22;37845;53.196;5.638;2022-09-17T07:46:21;11.50;99.90
51783;DHT22;37845;53.196;5.638;2022-09-17T07:48:47;11.40;99.90
51783;DHT22;37845;53.196;5.638;2022-09-17T07:51:16;12.20;99.90
51783;DHT22;37845;53.196;5.638;2022-09-17T07:53:42;11.30;99.90
51783;DHT22;37845;53.196;5.638;2022-09-17T07:56:08;11.30;99.90
51783;DHT22;37845;53.196;5.638;2022-09-17T07:58:34;11.30;99.90
51783;DHT22;37845;53.196;5.638;2022-09-17T08:01:08;12.00;99.90
51783;DHT22;37845;53.196;5.638;2022-09-17T08:03:34;11.30;99.90
51783;DHT22;37845;53.196;5.638;2022-09-17T08:06:01;11.40;99.90
51783;DHT22;37845;53.196;5.638;2022-09-17T08:08:29;11.60;99.90
51783;DHT22;37845;53.196;5.638;2022-09-17T08:10:58;11.90;99.90
51783;DHT22;37845;53.196;5.638;2022-09-17T08:13:24;12.20;99.90
51783;DHT22;37845;53.196;5.638;2022-09-17T08:15:49;12.40;99.90
51783;DHT22;37845;53.196;5.638;2022-09-17T08:18:15;12.20;99.90
51783;DHT22;37845;53.196;5.638;2022-09-17T08:20:41;12.00;99.90
51783;DHT22;37845;53.196;5.638;2022-09-17T08:23:06;11.90;99.90
51783;DHT22;37845;53.196;5.638;2022-09-17T08:25:32;11.90;99.90
51783;DHT22;37845;53.196;5.638;2022-09-17T08:27:58;11.80;99.90
51783;DHT22;37845;53.196;5.638;2022-09-17T08:30:23;11.80;99.90
51783;DHT22;37845;53.196;5.638;2022-09-17T08:32:59;11.80;99.90
51783;DHT22;37845;53.196;5.638;2022-09-17T08:35:25;11.80;99.90
51783;DHT22;37845;53.196;5.638;2022-09-17T08:37:53;11.90;99.90
51783;DHT22;37845;53.196;5.638;2022-09-17T08:40:19;12.10;99.90
51783;DHT22;37845;53.196;5.638;2022-09-17T08:42:58;12.50;99.90
51783;DHT22;37845;53.196;5.638;2022-09-17T08:45:26;12.60;99.90
51783;DHT22;37845;53.196;5.638;2022-09-17T08:47:53;12.80;99.90
51783;DHT22;37845;53.196;5.638;2022-09-17T08:55:38;13.40;99.90
51783;DHT22;37845;53.196;5.638;2022-09-17T09:00:49;13.80;99.90
51783;DHT22;37845;53.196;5.638;2022-09-17T09:03:50;13.70;99.90
51783;DHT22;37845;53.196;5.638;2022-09-17T09:06:07;13.50;99.90
51783;DHT22;37845;53.196;5.638;2022-09-17T09:08:38;13.60;99.90
51783;DHT22;37845;53.196;5.638;2022-09-17T09:11:15;13.60;99.90
51783;DHT22;37845;53.196;5.638;2022-09-17T09:16:40;13.50;99.90
51783;DHT22;37845;53.196;5.638;2022-09-17T09:19:00;13.60;99.90
51783;DHT22;37845;53.196;5.638;2022-09-17T09:21:33;13.80;99.90
51783;DHT22;37845;53.196;5.638;2022-09-17T09:24:09;14.00;99.90
51783;DHT22;37845;53.196;5.638;2022-09-17T09:26:48;14.20;99.90
51783;DHT22;37845;53.196;5.638;2022-09-17T09:31:59;13.90;99.90
51783;DHT22;37845;53.196;5.638;2022-09-17T09:34:26;13.80;99.90
51783;DHT22;37845;53.196;5.638;2022-09-17T09:36:55;13.90;99.90
51783;DHT22;37845;53.196;5.638;2022-09-17T09:39:26;14.00;99.90
51783;DHT22;37845;53.196;5.638;2022-09-17T09:42:09;13.90;99.90
51783;DHT22;37845;53.196;5.638;2022-09-17T09:44:36;13.80;99.90
51783;DHT22;37845;53.196;5.638;2022-09-17T09:54:59;13.90;99.90
51783;DHT22;37845;53.196;5.638;2022-09-17T09:57:24;13.60;99.90
51783;DHT22;37845;53.196;5.638;2022-09-17T10:02:45;13.30;99.90
51783;DHT22;37845;53.196;5.638;2022-09-17T10:05:11;13.20;99.90
51783;DHT22;37845;53.196;5.638;2022-09-17T10:07:44;12.90;99.90
51783;DHT22;37845;53.196;5.638;2022-09-17T10:10:09;12.60;99.90
51783;DHT22;37845;53.196;5.638;2022-09-17T10:12:35;12.40;99.90
51783;DHT22;37845;53.196;5.638;2022-09-17T10:15:20;12.30;99.90
51783;DHT22;37845;53.196;5.638;2022-09-17T10:17:46;12.20;99.90
51783;DHT22;37845;53.196;5.638;2022-09-17T10:20:14;12.10;99.90
51783;DHT22;37845;53.196;5.638;2022-09-17T10:22:41;12.10;99.90
51783;DHT22;37845;53.196;5.638;2022-09-17T10:25:17;12.10;99.90
51783;DHT22;37845;53.196;5.638;2022-09-17T10:27:45;12.00;99.90
51783;DHT22;37845;53.196;5.638;2022-09-17T10:32:36;11.70;99.90
51783;DHT22;37845;53.196;5.638;2022-09-17T10:35:04;11.50;99.90
51783;DHT22;37845;53.196;5.638;2022-09-17T10:37:35;11.40;99.90
51783;DHT22;37845;53.196;5.638;2022-09-17T10:42:44;12.30;99.90
51783;DHT22;37845;53.196;5.638;2022-09-17T10:45:22;11.50;99.90
51783;DHT22;37845;53.196;5.638;2022-09-17T10:47:48;11.60;99.90
51783;DHT22;37845;53.196;5.638;2022-09-17T10:50:15;11.70;99.90
51783;DHT22;37845;53.196;5.638;2022-09-17T10:52:46;11.80;99.90
51783;DHT22;37845;53.196;5.638;2022-09-17T10:58:01;12.20;99.90
51783;DHT22;37845;53.196;5.638;2022-09-17T11:00:35;12.50;99.90
51783;DHT22;37845;53.196;5.638;2022-09-17T11:05:37;13.10;99.90
51783;DHT22;37845;53.196;5.638;2022-09-17T11:10:35;13.00;99.90
51783;DHT22;37845;53.196;5.638;2022-09-17T11:18:19;12.70;99.90
51783;DHT22;37845;53.196;5.638;2022-09-17T11:28:52;13.90;99.90
51783;DHT22;37845;53.196;5.638;2022-09-17T11:31:36;13.40;99.90
51783;DHT22;37845;53.196;5.638;2022-09-17T11:36:52;13.90;99.90
51783;DHT22;37845;53.196;5.638;2022-09-17T11:39:33;14.00;99.90
51783;DHT22;37845;53.196;5.638;2022-09-17T11:42:01;14.10;99.90
51783;DHT22;37845;53.196;5.638;2022-09-17T11:44:30;14.30;99.90
51783;DHT22;37845;53.196;5.638;2022-09-17T11:47:12;14.40;99.90
51783;DHT22;37845;53.196;5.638;2022-09-17T11:52:15;14.60;99.90
51783;DHT22;37845;53.196;5.638;2022-09-17T11:54:53;14.60;99.90
51783;DHT22;37845;53.196;5.638;2022-09-17T11:57:20;14.40;99.90
51783;DHT22;37845;53.196;5.638;2022-09-17T12:02:20;14.50;99.90
51783;DHT22;37845;53.196;5.638;2022-09-17T12:08:02;14.80;99.90
51783;DHT22;37845;53.196;5.638;2022-09-17T12:10:44;14.90;99.90
51783;DHT22;37845;53.196;5.638;2022-09-17T12:12:53;15.00;99.90
51783;DHT22;37845;53.196;5.638;2022-09-17T12:15:29;15.10;99.90
51783;DHT22;37845;53.196;5.638;2022-09-17T12:18:00;15.20;99.90
51783;DHT22;37845;53.196;5.638;2022-09-17T12:20:35;15.20;99.90
51783;DHT22;37845;53.196;5.638;2022-09-17T12:23:02;15.20;99.90
51783;DHT22;37845;53.196;5.638;2022-09-17T12:25:32;15.30;99.90
51783;DHT22;37845;53.196;5.638;2022-09-17T12:28:11;15.30;99.90
51783;DHT22;37845;53.196;5.638;2022-09-17T12:30:39;15.30;99.90
51783;DHT22;37845;53.196;5.638;2022-09-17T12:58:20;14.60;99.90
51783;DHT22;37845;53.196;5.638;2022-09-17T13:00:50;14.50;99.90
51783;DHT22;37845;53.196;5.638;2022-09-17T13:13:56;13.10;99.90
51783;DHT22;37845;53.196;5.638;2022-09-17T13:16:28;12.90;99.90
51783;DHT22;37845;53.196;5.638;2022-09-17T13:19:03;12.80;99.90
51783;DHT22;37845;53.196;5.638;2022-09-17T13:24:23;12.80;99.90
51783;DHT22;37845;53.196;5.638;2022-09-17T13:26:51;13.00;99.90
51783;DHT22;37845;53.196;5.638;2022-09-17T13:32:04;13.30;99.90
51783;DHT22;37845;53.196;5.638;2022-09-17T13:34:30;13.30;99.90
51783;DHT22;37845;53.196;5.638;2022-09-17T13:37:00;13.30;99.90
51783;DHT22;37845;53.196;5.638;2022-09-17T13:39:34;13.40;99.90
51783;DHT22;37845;53.196;5.638;2022-09-17T13:42:07;13.50;99.90
51783;DHT22;37845;53.196;5.638;2022-09-17T13:44:35;13.50;99.90
51783;DHT22;37845;53.196;5.638;2022-09-17T13:49:48;13.60;99.90
51783;DHT22;37845;53.196;5.638;2022-09-17T13:52:26;13.20;99.90
51783;DHT22;37845;53.196;5.638;2022-09-17T13:54:53;13.00;99.90
51783;DHT22;37845;53.196;5.638;2022-09-17T13:57:20;12.90;99.90
51783;DHT22;37845;53.196;5.638;2022-09-17T13:59:53;12.90;99.90
51783;DHT22;37845;53.196;5.638;2022-09-17T14:02:32;12.90;99.90
51783;DHT22;37845;53.196;5.638;2022-09-17T14:07:44;12.70;99.90
51783;DHT22;37845;53.196;5.638;2022-09-17T14:17:51;13.40;99.90
51783;DHT22;37845;53.196;5.638;2022-09-17T14:20:19;13.40;99.90
51783;DHT22;37845;53.196;5.638;2022-09-17T14:22:56;13.60;99.90
51783;DHT22;37845;53.196;5.638;2022-09-17T14:25:26;13.70;99.90
51783;DHT22;37845;53.196;5.638;2022-09-17T14:27:59;13.80;99.90
51783;DHT22;37845;53.196;5.638;2022-09-17T14:30:31;13.90;99.90
51783;DHT22;37845;53.196;5.638;2022-09-17T14:38:02;14.00;99.90
51783;DHT22;37845;53.196;5.638;2022-09-17T14:40:32;14.10;99.90
51783;DHT22;37845;53.196;5.638;2022-09-17T14:42:58;14.10;99.90
51783;DHT22;37845;53.196;5.638;2022-09-17T14:50:37;14.20;99.90
51783;DHT22;37845;53.196;5.638;2022-09-17T14:53:06;14.30;99.90
51783;DHT22;37845;53.196;5.638;2022-09-17T14:55:32;14.30;99.90
51783;DHT22;37845;53.196;5.638;2022-09-17T14:57:58;14.30;99.90
51783;DHT22;37845;53.196;5.638;2022-09-17T15:00:33;14.20;99.90
51783;DHT22;37845;53.196;5.638;2022-09-17T15:03:00;14.10;99.90
51783;DHT22;37845;53.196;5.638;2022-09-17T15:10:47;13.80;99.90
51783;DHT22;37845;53.196;5.638;2022-09-17T15:13:20;13.90;99.90
51783;DHT22;37845;53.196;5.638;2022-09-17T15:16:12;14.00;99.90
51783;DHT22;37845;53.196;5.638;2022-09-17T15:18:37;14.10;99.90
51783;DHT22;37845;53.196;5.638;2022-09-17T15:21:06;14.00;99.90
51783;DHT22;37845;53.196;5.638;2022-09-17T15:23:35;14.00;99.90
51783;DHT22;37845;53.196;5.638;2022-09-17T15:26:01;14.00;99.90
51783;DHT22;37845;53.196;5.638;2022-09-17T15:29:01;14.00;99.90
51783;DHT22;37845;53.196;5.638;2022-09-17T15:31:20;14.10;99.90
51783;DHT22;37845;53.196;5.638;2022-09-17T15:33:46;14.10;99.90
51783;DHT22;37845;53.196;5.638;2022-09-17T15:38:44;14.00;99.90
51783;DHT22;37845;53.196;5.638;2022-09-17T15:41:32;14.00;99.90
51783;DHT22;37845;53.196;5.638;2022-09-17T15:46:41;13.90;99.90
51783;DHT22;37845;53.196;5.638;2022-09-17T15:51:51;13.80;99.90
51783;DHT22;37845;53.196;5.638;2022-09-17T15:54:28;13.80;99.90
51783;DHT22;37845;53.196;5.638;2022-09-17T15:56:55;13.80;99.90
51783;DHT22;37845;53.196;5.638;2022-09-17T16:01:51;13.80;99.90
51783;DHT22;37845;53.196;5.638;2022-09-17T16:06:59;13.80;99.90
51783;DHT22;37845;53.196;5.638;2022-09-17T16:09:38;13.70;99.90
51783;DHT22;37845;53.196;5.638;2022-09-17T16:12:06;13.70;99.90
51783;DHT22;37845;53.196;5.638;2022-09-17T16:14:31;13.70;99.90
51783;DHT22;37845;53.196;5.638;2022-09-17T16:16:57;13.70;99.90
51783;DHT22;37845;53.196;5.638;2022-09-17T16:19:24;14.10;99.90
51783;DHT22;37845;53.196;5.638;2022-09-17T16:21:49;14.20;99.90
51783;DHT22;37845;53.196;5.638;2022-09-17T16:24:15;13.50;99.90
51783;DHT22;37845;53.196;5.638;2022-09-17T16:26:41;13.70;99.90
51783;DHT22;37845;53.196;5.638;2022-09-17T16:29:09;13.70;99.90
51783;DHT22;37845;53.196;5.638;2022-09-17T16:31:36;13.60;99.90
51783;DHT22;37845;53.196;5.638;2022-09-17T16:34:02;13.60;99.90
51783;DHT22;37845;53.196;5.638;2022-09-17T16:36:27;13.00;99.90
51783;DHT22;37845;53.196;5.638;2022-09-17T16:38:55;13.60;99.90
51783;DHT22;37845;53.196;5.638;2022-09-17T16:41:21;13.50;99.90
51783;DHT22;37845;53.196;5.638;2022-09-17T16:43:46;13.50;99.90
51783;DHT22;37845;53.196;5.638;2022-09-17T16:46:12;13.40;99.90
51783;DHT22;37845;53.196;5.638;2022-09-17T16:48:38;13.30;99.90
51783;DHT22;37845;53.196;5.638;2022-09-17T16:51:06;13.20;99.90
51783;DHT22;37845;53.196;5.638;2022-09-17T16:53:32;13.10;99.90
51783;DHT22;37845;53.196;5.638;2022-09-17T16:55:58;13.00;99.90
51783;DHT22;37845;53.196;5.638;2022-09-17T16:58:24;13.00;99.90
51783;DHT22;37845;53.196;5.638;2022-09-17T17:00:50;12.90;99.90
51783;DHT22;37845;53.196;5.638;2022-09-17T17:03:15;13.00;99.90
51783;DHT22;37845;53.196;5.638;2022-09-17T17:05:41;13.00;99.90
51783;DHT22;37845;53.196;5.638;2022-09-17T17:08:08;13.00;99.90
51783;DHT22;37845;53.196;5.638;2022-09-17T17:10:34;13.00;99.90
51783;DHT22;37845;53.196;5.638;2022-09-17T17:13:00;13.00;99.90
51783;DHT22;37845;53.196;5.638;2022-09-17T17:15:25;13.00;99.90
51783;DHT22;37845;53.196;5.638;2022-09-17T17:17:51;13.00;99.90
51783;DHT22;37845;53.196;5.638;2022-09-17T17:20:17;13.00;99.90
51783;DHT22;37845;53.196;5.638;2022-09-17T17:22:43;13.00;99.90
51783;DHT22;37845;53.196;5.638;2022-09-17T17:25:09;13.00;99.90
51783;DHT22;37845;53.196;5.638;2022-09-17T17:27:35;13.30;99.90
51783;DHT22;37845;53.196;5.638;2022-09-17T17:30:01;12.80;99.90
51783;DHT22;37845;53.196;5.638;2022-09-17T17:32:31;12.70;99.90
51783;DHT22;37845;53.196;5.638;2022-09-17T17:34:56;12.60;99.90
51783;DHT22;37845;53.196;5.638;2022-09-17T17:37:22;12.40;99.90
51783;DHT22;37845;53.196;5.638;2022-09-17T17:39:48;12.20;99.90
51783;DHT22;37845;53.196;5.638;2022-09-17T17:42:13;12.10;99.90
51783;DHT22;37845;53.196;5.638;2022-09-17T17:44:39;12.10;99.90
51783;DHT22;37845;53.196;5.638;2022-09-17T17:47:05;12.00;99.90
51783;DHT22;37845;53.196;5.638;2022-09-17T17:49:31;12.00;99.90
51783;DHT22;37845;53.196;5.638;2022-09-17T17:51:57;12.00;99.90
51783;DHT22;37845;53.196;5.638;2022-09-17T17:54:28;12.00;99.90
51783;DHT22;37845;53.196;5.638;2022-09-17T18:02:03;11.20;99.90
51783;DHT22;37845;53.196;5.638;2022-09-17T18:04:29;12.20;99.90
51783;DHT22;37845;53.196;5.638;2022-09-17T18:06:55;11.30;99.90
51783;DHT22;37845;53.196;5.638;2022-09-17T18:09:20;12.00;99.90
51783;DHT22;37845;53.196;5.638;2022-09-17T18:11:46;12.00;99.90
51783;DHT22;37845;53.196;5.638;2022-09-17T18:14:12;11.80;99.90
51783;DHT22;37845;53.196;5.638;2022-09-17T18:16:38;11.80;99.90
51783;DHT22;37845;53.196;5.638;2022-09-17T18:19:04;11.60;99.90
51783;DHT22;37845;53.196;5.638;2022-09-17T18:21:30;11.60;99.90
51783;DHT22;37845;53.196;5.638;2022-09-17T18:23:55;11.70;99.90
51783;DHT22;37845;53.196;5.638;2022-09-17T18:26:22;11.70;99.90
51783;DHT22;37845;53.196;5.638;2022-09-17T18:28:48;11.80;99.90
51783;DHT22;37845;53.196;5.638;2022-09-17T18:31:18;11.70;99.90
51783;DHT22;37845;53.196;5.638;2022-09-17T18:33:45;11.80;99.90
51783;DHT22;37845;53.196;5.638;2022-09-17T18:36:10;11.80;99.90
51783;DHT22;37845;53.196;5.638;2022-09-17T18:38:36;11.80;99.90
51783;DHT22;37845;53.196;5.638;2022-09-17T18:41:04;11.80;99.90
51783;DHT22;37845;53.196;5.638;2022-09-17T18:43:32;12.50;99.90
51783;DHT22;37845;53.196;5.638;2022-09-17T18:46:00;11.80;99.90
51783;DHT22;37845;53.196;5.638;2022-09-17T18:48:26;11.80;99.90
51783;DHT22;37845;53.196;5.638;2022-09-17T18:50:55;11.80;99.90
51783;DHT22;37845;53.196;5.638;2022-09-17T18:53:22;11.80;99.90